METAR-Meldungen aus der Umgebung


Warning: A non-numeric value encountered in /homepages/1/d50633195/htdocs/bad-muskau-wetter/weather28/metar/metarDisplay.php on line 168

Warning: A non-numeric value encountered in /homepages/1/d50633195/htdocs/bad-muskau-wetter/weather28/metar/metarDisplay.php on line 168

Warning: A non-numeric value encountered in /homepages/1/d50633195/htdocs/bad-muskau-wetter/weather28/metar/metarDisplay.php on line 168

Warning: A non-numeric value encountered in /homepages/1/d50633195/htdocs/bad-muskau-wetter/weather28/metar/metarDisplay.php on line 168

Warning: A non-numeric value encountered in /homepages/1/d50633195/htdocs/bad-muskau-wetter/weather28/metar/metarDisplay.php on line 168

Warning: A non-numeric value encountered in /homepages/1/d50633195/htdocs/bad-muskau-wetter/weather28/metar/metarDisplay.php on line 168
   
EDDC - Dresden/Klotzsch, Germany
Entfernung von der Station bis: SW 82 km
Aktualisierung: 19-09-2019 18:20
Klar  
Klar  
   Wind: WNW 9.3 km/h
Wind: WNW 9.3 km/h
Temperatur: 13°C
Taupunkt: 3°C
Luftfeuchte: 51%
Luftdruck: 1027 hPa
Sichtbarkeit: More than 10 km
Bewölkung: Klar
EDDC 191620Z 30005KT 280V350 CAVOK 13/03 Q1027 NOSIG
EPZG - Zielona Gora, Poland
Entfernung von der Station bis: NO 99 km
Aktualisierung: 19-09-2019 18:30
Klar  
Klar  
   Wind: WNW 9.3 km/h
Wind: WNW 9.3 km/h
Temperatur: 13°C
Taupunkt: 4°C
Luftfeuchte: 55%
Luftdruck: 1026 hPa
Sichtbarkeit: More than 10 km
Bewölkung: Klar
EPZG 191630Z 29005KT 210V320 CAVOK 13/04 Q1026
ETSH - Holzdorf, Germany
Entfernung von der Station bis: WNW 110 km
Aktualisierung: 19-09-2019 18:20
Stark bewölkt  
Stark bewölkt  
   Wind: WNW 11.1 km/h
Wind: WNW 11.1 km/h
Temperatur: 15°C
Taupunkt: 2°C
Luftfeuchte: 42%
Luftdruck: 1027 hPa
Bewölkt: Stark bewölkt
Sichtbarkeit: More than 10 km
Bewölkung: leicht bewölkt 6000 ft,
Stark bewölkt 24000 ft
ETSH 191620Z 30006KT 9999 FEW060 BKN240 15/02 Q1027 BLU+
EDDB - Berlin/Schonefel, Germany
Entfernung von der Station bis: NW 124 km
Aktualisierung: 19-09-2019 18:20
Klar  
Klar  
   Wind: WNW 18.5 km/h
Wind: WNW 18.5 km/h
Temperatur: 15°C
Taupunkt: 3°C
Luftfeuchte: 45%
Luftdruck: 1027 hPa
Sichtbarkeit: More than 10 km
Bewölkung: Klar
EDDB 191620Z 30010KT CAVOK 15/03 Q1027 NOSIG
EDDT - Berlin/Tegel (fa, Germany
Entfernung von der Station bis: NW 149 km
Aktualisierung: 19-09-2019 18:20
Klar  
Klar  
   Wind: WNW 7.4 km/h
Wind: WNW 7.4 km/h
Temperatur: 15°C
Taupunkt: 5°C
Luftfeuchte: 51%
Luftdruck: 1027 hPa
Sichtbarkeit: More than 10 km
Bewölkung: Klar
EDDT 191620Z 30004KT 270V330 CAVOK 15/05 Q1027 NOSIG
LKVO - Vodochody, Czech Republic
Entfernung von der Station bis: S 149 km
Aktualisierung: 19-09-2019 15:00
Nicht aktuell
Stark bewölkt  
Stark bewölkt  
   Wind: NW 18.5 km/h
Wind: NW 18.5 km/h
Temperatur: 14°C
Taupunkt: 2°C
Luftfeuchte: 44%
Luftdruck: 1027 hPa
Bewölkt: Stark bewölkt
Sichtbarkeit: More than 10 km
Bewölkung: leicht bewölkt 4700 ft,
Stark bewölkt 6900 ft
LKVO 191300Z 31010KT 270V010 9999 FEW047 BKN069 14/02 Q1027
EPWR - Wroclaw/Strachow, Poland
Entfernung von der Station bis: OSO 157 km
Aktualisierung: 19-09-2019 18:30
Klar  
Klar  
   Wind: NW 18.5 km/h
Wind: NW 18.5 km/h
Temperatur: 12°C
Taupunkt: 6°C
Luftfeuchte: 67%
Luftdruck: 1026 hPa
Sichtbarkeit: More than 10 km
Bewölkung: Klar
EPWR 191630Z 31010KT CAVOK 12/06 Q1026
LKKB - Kbely, Czech Republic
Entfernung von der Station bis: S 159 km
Aktualisierung: 19-09-2019 18:00
Klar  
Klar  
   Wind: WNW 11.1 km/h
Wind: WNW 11.1 km/h
Temperatur: 13°C
Taupunkt: 2°C
Luftfeuchte: 47%
Luftdruck: 1027 hPa
Sichtbarkeit: More than 10 km
Bewölkung: Klar
LKKB 191600Z 29006KT CAVOK 13/02 Q1027 NOSIG
 

Script entwickelt von  Saratoga-weather.org Angepasst für das Template von  Weerstation Leuven